ADDS METAR Data INFO
IDs: Format: Raw Decoded Include TAF

Data at: 0751 UTC 17 Oct 2017

PAWD 170653Z AUTO 01010G18KT 10SM CLR 03/M06 A2954 RMK AO2 SLP004 T00331056 TSNO
PAWD 170553Z AUTO 02010G19KT 330V050 10SM CLR 03/M05 A2954 RMK AO2 SLP005 T00281050 10061 20022 51005 TSNO
PAWD 170453Z AUTO 35010KT 10SM CLR 02/M05 A2954 RMK AO2 SLP005 T00221050 TSNO
PAWD 170353Z AUTO 33013G21KT 10SM CLR 04/M05 A2954 RMK AO2 SLP003 T00391050 TSNO
PAWD 170253Z AUTO 34011G18KT 10SM CLR 04/M05 A2953 RMK AO2 SLP000 T00391050 51005 TSNO
PAWD 170153Z AUTO 32016G24KT 10SM CLR 04/M05 A2953 RMK AO2 SLP999 T00441050 TSNO
PAWD 170053Z AUTO 31016G25KT 10SM CLR 06/M06 A2952 RMK AO2 PK WND 31026/0017 SLP998 T00561056 TSNO
PAWD 162353Z AUTO 31015G22KT 10SM CLR 06/M06 A2952 RMK AO2 SLP995 T00611056 10067 20022 55002 TSNO
PAWD 162253Z AUTO 30015G24KT 10SM CLR 06/M06 A2952 RMK AO2 SLP995 T00611061 TSNO
PAWD 162153Z AUTO 31016G21KT 10SM CLR 06/M06 A2952 RMK AO2 SLP996 T00611056 TSNO
PAWD 162053Z AUTO 33012G22KT 300V360 10SM CLR 06/M06 A2952 RMK AO2 SLP997 T00611061 51007 TSNO
PAWD 161953Z AUTO 01011KT 10SM CLR 05/M04 A2952 RMK AO2 SLP996 T00501044 TSNO
PAWD 161853Z AUTO 02011G19KT 10SM CLR 04/M04 A2951 RMK AO2 SLP993 T00391039 TSNO
PAWD 161753Z AUTO 36014G19KT 10SM CLR 02/M03 A2950 RMK AO2 SLP990 T00221033 10039 20022 53003 TSNO
PAWD 161653Z AUTO 36013KT 10SM CLR 03/M03 A2950 RMK AO2 SLP988 T00281033 TSNO
PAWD 161553Z AUTO 36011G16KT 10SM CLR 03/M03 A2949 RMK AO2 SLP987 T00331033 TSNO
PAWD 161453Z AUTO 35012G18KT 10SM CLR 03/M03 A2949 RMK AO2 SLP987 T00331033 53003 TSNO
PAWD 161353Z AUTO 36011KT 10SM CLR 03/M03 A2949 RMK AO2 SLP985 T00331028 TSNO
PAWD 161253Z AUTO 36009KT 10SM CLR 03/M03 A2948 RMK AO2 SLP983 T00331033 TSNO
PAWD 161153Z AUTO 01012G21KT 10SM SCT075 04/M03 A2948 RMK AO2 SLP984 T00391033 10050 20022 51003 TSNO
PAWD 161053Z AUTO 03011KT 10SM FEW048 03/M03 A2948 RMK AO2 SLP984 T00331028 TSNO
PAWD 160953Z AUTO 04008KT 10SM BKN050 03/M03 A2948 RMK AO2 SLP984 T00281028 TSNO
PAWD 160853Z AUTO 02006G16KT 10SM FEW050 04/M03 A2948 RMK AO2 SLP981 T00391028 400830028 53008 TSNO
PAWD 160753Z AUTO 01007KT 10SM SCT060 03/M02 A2946 RMK AO2 SLP977 T00331022 TSNO
PAWD 160653Z AUTO 01011G17KT 10SM CLR 05/M03 A2946 RMK AO2 SLP975 T00501033 TSNO
PAWD 160553Z AUTO 01007KT 10SM CLR 05/M03 A2945 RMK AO2 SLP973 T00501033 10072 20044 51006 TSNO
PAWD 160453Z AUTO 03006KT 10SM BKN070 05/M03 A2945 RMK AO2 SLP971 T00501028 TSNO
PAWD 160353Z AUTO 01007KT 10SM BKN060 05/M03 A2944 RMK AO2 SLP969 T00501028 TSNO
PAWD 160253Z AUTO 34007KT 10SM OVC060 06/M03 A2943 RMK AO2 SLP967 T00611033 55001 TSNO
PAWD 160153Z AUTO 33009G16KT 10SM BKN060 06/M04 A2943 RMK AO2 SLP966 T00611044 TSNO
PAWD 160053Z AUTO 34009KT 10SM FEW050 07/M04 A2943 RMK AO2 SLP966 T00671044 TSNO
PAWD 152353Z AUTO 01010KT 10SM OVC055 07/M04 A2944 RMK AO2 SLP968 T00721039 10083 20039 55002 TSNO
PAWD 152253Z AUTO 32011KT 10SM BKN055 07/M04 A2944 RMK AO2 SLP968 T00721039 TSNO
PAWD 152153Z AUTO 35010G17KT 10SM OVC050 08/M04 A2944 RMK AO2 SLP968 T00781039 TSNO
PAWD 152053Z AUTO 01011G19KT 10SM BKN055 07/M03 A2944 RMK AO2 SLP970 T00721028 52003 TSNO
PAWD 151953Z AUTO 01008KT 10SM FEW050 07/M02 A2944 RMK AO2 SLP969 T00671022 TSNO